Time;durP1;ratioP1;P1;durP2;ratioP2;P2;SDS_P1;SDS_P2;PMS_P1;PMS_P2;Temp;Humidity;BMP_temperature;BMP_pressure;BME280_temperature;BME280_humidity;BME280_pressure;Samples;Min_cycle;Max_cycle;Signal;HPM_P1;HPM_P2
2023/12/26 00:01:19;;;;;;;0.50;0.20;;;9.20;1.00;;;;;;5114576;28;20432;-58
2023/12/26 00:03:46;;;;;;;0.55;0.30;;;9.20;1.00;;;;;;5114421;28;20436;-55
2023/12/26 00:06:13;;;;;;;2.00;0.30;;;9.20;99.90;;;;;;5113456;28;20416;-58
2023/12/26 00:08:41;;;;;;;1.45;0.35;;;9.30;1.00;;;;;;5108000;28;20710;-58
2023/12/26 00:11:08;;;;;;;1.20;0.30;;;9.40;99.90;;;;;;5111191;28;21077;-59
2023/12/26 00:13:35;;;;;;;0.90;0.30;;;9.40;1.00;;;;;;5114796;28;20834;-58
2023/12/26 00:16:05;;;;;;;0.60;0.30;;;9.30;98.90;;;;;;5106165;28;20427;-59
2023/12/26 00:18:32;;;;;;;0.80;0.30;;;9.30;99.90;;;;;;5112664;28;20412;-59
2023/12/26 00:20:59;;;;;;;0.77;0.30;;;9.30;99.90;;;;;;5113565;28;20510;-58
2023/12/26 00:23:26;;;;;;;0.50;0.30;;;9.30;1.00;;;;;;5113337;28;20745;-58
2023/12/26 00:25:53;;;;;;;0.50;0.20;;;9.20;99.90;;;;;;5113352;28;20724;-55
2023/12/26 00:28:20;;;;;;;0.50;0.28;;;9.20;1.00;;;;;;5113390;28;20522;-58
2023/12/26 00:30:48;;;;;;;0.80;0.20;;;9.20;1.00;;;;;;5104041;28;20440;-57
2023/12/26 00:33:16;;;;;;;1.00;0.20;;;9.20;1.00;;;;;;5110948;28;20446;-56
2023/12/26 00:35:43;;;;;;;1.52;0.30;;;9.20;1.00;;;;;;5114252;28;20480;-58
2023/12/26 00:38:10;;;;;;;0.50;0.22;;;9.20;1.00;;;;;;5113045;28;20444;-58
2023/12/26 00:40:41;;;;;;;0.80;0.30;;;9.20;1.00;;;;;;5113186;28;20839;-57
2023/12/26 00:43:08;;;;;;;0.80;0.30;;;9.10;1.00;;;;;;5108927;28;20444;-58
2023/12/26 00:45:35;;;;;;;0.50;0.30;;;9.20;63.60;;;;;;5107686;28;20434;-57
2023/12/26 00:48:02;;;;;;;0.70;0.30;;;9.10;13.10;;;;;;5112649;28;20489;-59
2023/12/26 00:50:31;;;;;;;0.60;0.20;;;9.10;1.00;;;;;;5116371;28;20441;-58
2023/12/26 00:53:00;;;;;;;0.88;0.25;;;9.00;99.90;;;;;;5108773;28;20530;-58
2023/12/26 00:55:27;;;;;;;1.40;0.30;;;9.00;99.90;;;;;;5092088;28;20426;-59
2023/12/26 00:57:54;;;;;;;0.60;0.20;;;9.00;99.90;;;;;;5103330;28;20440;-58
2023/12/26 01:00:22;;;;;;;0.60;0.30;;;8.90;99.90;;;;;;5132523;28;20409;-58
2023/12/26 01:02:49;;;;;;;0.43;0.30;;;8.80;99.90;;;;;;5109986;28;20954;-59
2023/12/26 01:05:17;;;;;;;0.80;0.30;;;8.70;99.90;;;;;;5112095;28;20423;-56
2023/12/26 01:07:45;;;;;;;1.00;0.30;;;8.70;99.90;;;;;;5094298;28;20536;-54
2023/12/26 01:10:12;;;;;;;1.30;0.30;;;8.70;1.00;;;;;;5111419;28;20416;-54
2023/12/26 01:12:39;;;;;;;0.80;0.30;;;8.70;1.00;;;;;;5113147;28;20446;-56
2023/12/26 01:15:07;;;;;;;0.85;0.30;;;8.90;1.00;;;;;;5113544;28;20448;-56
2023/12/26 01:17:35;;;;;;;0.82;0.30;;;8.90;1.00;;;;;;5096405;28;20744;-57
2023/12/26 01:20:05;;;;;;;1.10;0.30;;;8.90;99.90;;;;;;5111639;28;20432;-57
2023/12/26 01:22:32;;;;;;;0.60;0.30;;;8.80;99.90;;;;;;5113392;27;20502;-58
2023/12/26 01:25:00;;;;;;;0.50;0.30;;;8.70;99.90;;;;;;5115536;28;20424;-58
2023/12/26 01:27:28;;;;;;;0.55;0.20;;;8.70;1.00;;;;;;5114266;28;20446;-58
2023/12/26 01:29:55;;;;;;;0.50;0.20;;;8.70;1.00;;;;;;5114935;28;20529;-58
2023/12/26 01:32:22;;;;;;;0.88;0.40;;;8.70;1.00;;;;;;5116631;28;20834;-52
2023/12/26 01:34:49;;;;;;;0.88;0.20;;;8.80;1.00;;;;;;5116195;28;20446;-58
2023/12/26 01:37:16;;;;;;;0.60;0.30;;;8.80;99.90;;;;;;5115938;28;20430;-57
2023/12/26 01:39:43;;;;;;;0.60;0.30;;;8.80;99.90;;;;;;5115287;28;20438;-57
2023/12/26 01:42:13;;;;;;;1.23;0.30;;;8.80;99.90;;;;;;5115795;28;20852;-59
2023/12/26 01:44:40;;;;;;;0.43;0.30;;;8.80;99.90;;;;;;5115870;28;20432;-57
2023/12/26 01:47:08;;;;;;;0.50;0.30;;;8.90;99.90;;;;;;5112739;28;20458;-57
2023/12/26 01:49:35;;;;;;;0.50;0.20;;;8.80;99.90;;;;;;5116530;28;20428;-58
2023/12/26 01:52:05;;;;;;;1.00;0.30;;;8.90;99.90;;;;;;5114391;28;20436;-58
2023/12/26 01:54:34;;;;;;;0.50;0.30;;;8.80;99.90;;;;;;5109930;28;20513;-59
2023/12/26 01:57:02;;;;;;;0.50;0.20;;;8.90;99.90;;;;;;5099313;28;20504;-57
2023/12/26 01:59:31;;;;;;;0.57;0.30;;;9.00;99.90;;;;;;5116509;28;20742;-55
2023/12/26 02:01:58;;;;;;;0.90;0.30;;;9.00;99.90;;;;;;5097268;28;20432;-58
2023/12/26 02:04:26;;;;;;;0.50;0.20;;;8.90;1.20;;;;;;5113292;28;20439;-59
2023/12/26 02:06:53;;;;;;;0.70;0.20;;;8.90;97.10;;;;;;5106792;28;20428;-59
2023/12/26 02:09:20;;;;;;;0.70;0.30;;;8.90;46.50;;;;;;5099108;28;20416;-59
2023/12/26 02:11:47;;;;;;;0.50;0.30;;;8.80;29.40;;;;;;5105655;28;20420;-59
2023/12/26 02:14:15;;;;;;;0.60;0.30;;;8.80;99.90;;;;;;5115360;28;20448;-59
2023/12/26 02:16:47;;;;;;;0.50;0.20;;;8.80;99.90;;;;;;5116928;28;20428;-56
2023/12/26 02:19:14;;;;;;;0.82;0.30;;;8.80;99.90;;;;;;5116240;28;20738;-58
2023/12/26 02:21:41;;;;;;;0.60;0.28;;;8.70;75.30;;;;;;5112705;28;20432;-56
2023/12/26 02:24:10;;;;;;;0.70;0.30;;;8.60;99.90;;;;;;5114900;28;20432;-58
2023/12/26 02:26:40;;;;;;;0.57;0.20;;;8.60;99.90;;;;;;5115087;28;20444;-59
2023/12/26 02:29:08;;;;;;;1.20;0.30;;;8.50;99.90;;;;;;5113912;28;20527;-59
2023/12/26 02:31:38;;;;;;;0.60;0.25;;;8.50;99.90;;;;;;5115699;28;20440;-55
2023/12/26 02:34:05;;;;;;;0.60;0.30;;;8.60;99.90;;;;;;5104484;28;20433;-58
2023/12/26 02:36:32;;;;;;;0.50;0.20;;;8.70;99.90;;;;;;5110392;28;21029;-57
2023/12/26 02:39:01;;;;;;;0.55;0.20;;;8.80;7.30;;;;;;5114320;28;20862;-58
2023/12/26 02:41:29;;;;;;;0.57;0.20;;;8.80;1.00;;;;;;5115397;28;20918;-55
2023/12/26 02:43:56;;;;;;;0.80;0.25;;;8.80;1.00;;;;;;5114561;28;20519;-57
2023/12/26 02:46:23;;;;;;;0.50;0.30;;;8.70;1.00;;;;;;5113191;28;20442;-58
2023/12/26 02:48:50;;;;;;;0.55;0.20;;;8.80;99.90;;;;;;5115373;28;20432;-59
2023/12/26 02:51:18;;;;;;;0.50;0.30;;;8.80;1.00;;;;;;5112421;28;20432;-59
2023/12/26 02:53:45;;;;;;;0.40;0.20;;;8.90;1.00;;;;;;5112970;28;20438;-58
2023/12/26 02:56:12;;;;;;;2.00;0.30;;;8.90;1.00;;;;;;5103350;28;20866;-57
2023/12/26 02:58:41;;;;;;;0.50;0.30;;;8.80;1.00;;;;;;5103998;28;20443;-58
2023/12/26 03:01:08;;;;;;;1.55;0.30;;;8.80;1.00;;;;;;5113019;28;20420;-58
2023/12/26 03:03:35;;;;;;;1.30;0.30;;;8.80;1.00;;;;;;5116531;28;20815;-58
2023/12/26 03:06:02;;;;;;;1.40;0.30;;;8.80;1.00;;;;;;5111129;28;20418;-57
2023/12/26 03:08:29;;;;;;;0.40;0.30;;;8.80;1.00;;;;;;5114437;27;20428;-58
2023/12/26 03:10:57;;;;;;;1.10;0.30;;;8.70;1.00;;;;;;5113958;28;20459;-57
2023/12/26 03:13:24;;;;;;;0.70;0.30;;;8.70;1.00;;;;;;5114576;28;20432;-57
2023/12/26 03:15:52;;;;;;;0.50;0.20;;;8.80;96.30;;;;;;5113308;28;20511;-59
2023/12/26 03:18:21;;;;;;;0.63;0.30;;;8.80;1.00;;;;;;5113007;28;20412;-59
2023/12/26 03:20:48;;;;;;;0.52;0.30;;;8.80;1.00;;;;;;5107457;28;20929;-58
2023/12/26 03:23:17;;;;;;;0.50;0.20;;;8.70;99.90;;;;;;5115064;28;20419;-58
2023/12/26 03:25:44;;;;;;;0.30;0.20;;;8.70;99.90;;;;;;5113164;28;20432;-57
2023/12/26 03:28:11;;;;;;;1.10;0.20;;;8.70;99.90;;;;;;5113033;28;20443;-56
2023/12/26 03:30:39;;;;;;;1.20;0.22;;;8.70;99.90;;;;;;5112407;28;20927;-57
2023/12/26 03:33:08;;;;;;;0.50;0.22;;;8.80;1.00;;;;;;5114861;28;20420;-56
2023/12/26 03:35:35;;;;;;;0.90;0.30;;;8.80;1.00;;;;;;5114253;27;20467;-56
2023/12/26 03:38:02;;;;;;;0.87;0.30;;;8.70;99.90;;;;;;5114009;28;20447;-57
2023/12/26 03:40:29;;;;;;;0.50;0.20;;;8.70;1.00;;;;;;5112437;28;20436;-57
2023/12/26 03:42:56;;;;;;;0.60;0.30;;;8.70;51.70;;;;;;5113693;28;20468;-58
2023/12/26 03:45:26;;;;;;;1.00;0.20;;;8.70;99.90;;;;;;5111880;28;20424;-58
2023/12/26 03:47:53;;;;;;;0.80;0.20;;;8.70;1.00;;;;;;5113144;28;20493;-58
2023/12/26 03:50:22;;;;;;;0.82;0.30;;;8.80;99.90;;;;;;5112468;28;20442;-58
2023/12/26 03:52:49;;;;;;;0.50;0.20;;;9.00;99.90;;;;;;5111588;28;20867;-58
2023/12/26 03:55:17;;;;;;;0.50;0.20;;;9.10;91.10;;;;;;5112376;28;20420;-58
2023/12/26 03:57:44;;;;;;;0.80;0.20;;;9.20;1.00;;;;;;5103629;28;20428;-58
2023/12/26 04:00:12;;;;;;;0.90;0.20;;;9.30;1.00;;;;;;5108670;28;20436;-57
2023/12/26 04:02:40;;;;;;;1.38;0.30;;;9.40;99.90;;;;;;5112633;28;20434;-58
2023/12/26 04:05:08;;;;;;;0.60;0.30;;;9.40;32.70;;;;;;5112113;28;20437;-58
2023/12/26 04:07:37;;;;;;;0.93;0.20;;;9.40;66.90;;;;;;5111680;28;20435;-57
2023/12/26 04:10:03;;;;;;;0.82;0.30;;;9.40;1.00;;;;;;5110575;28;20424;-59
2023/12/26 04:12:31;;;;;;;2.20;0.30;;;9.30;1.00;;;;;;5106961;28;20414;-57
2023/12/26 04:14:58;;;;;;;0.70;0.20;;;9.40;1.00;;;;;;5098414;28;20433;-58
2023/12/26 04:17:26;;;;;;;0.52;0.30;;;9.40;1.00;;;;;;5112533;28;20524;-59
2023/12/26 04:19:53;;;;;;;0.60;0.30;;;9.40;1.00;;;;;;5111472;28;20428;-58
2023/12/26 04:22:20;;;;;;;1.20;0.20;;;9.50;1.00;;;;;;5112578;28;20432;-58
2023/12/26 04:24:49;;;;;;;1.30;0.30;;;9.40;1.00;;;;;;5106650;28;20855;-57
2023/12/26 04:27:16;;;;;;;0.40;0.20;;;9.30;1.00;;;;;;5108883;28;20794;-57
2023/12/26 04:29:43;;;;;;;0.80;0.20;;;9.20;1.00;;;;;;5097000;28;20421;-55
2023/12/26 04:32:11;;;;;;;1.50;0.30;;;9.30;1.00;;;;;;5103064;28;20833;-57
2023/12/26 04:34:38;;;;;;;1.02;0.30;;;9.30;1.00;;;;;;5106248;28;21100;-57
2023/12/26 04:37:06;;;;;;;0.60;0.20;;;9.30;1.00;;;;;;5110291;28;20450;-57
2023/12/26 04:39:33;;;;;;;0.60;0.30;;;9.30;1.00;;;;;;5113253;28;20412;-57
2023/12/26 04:42:01;;;;;;;2.00;0.30;;;9.40;1.00;;;;;;5104111;28;20461;-57
2023/12/26 04:44:29;;;;;;;1.10;0.30;;;9.40;1.00;;;;;;5111480;28;20439;-57
2023/12/26 04:46:56;;;;;;;1.00;0.30;;;9.40;1.00;;;;;;5111415;28;20424;-57
2023/12/26 04:49:23;;;;;;;1.40;0.30;;;9.40;1.00;;;;;;5112963;28;20901;-56
2023/12/26 04:51:50;;;;;;;0.80;0.20;;;9.40;1.00;;;;;;5108080;28;20827;-57
2023/12/26 04:54:18;;;;;;;0.70;0.30;;;9.40;1.00;;;;;;5112589;28;20409;-55
2023/12/26 04:56:45;;;;;;;1.00;0.30;;;9.30;1.00;;;;;;5099169;28;20545;-55
2023/12/26 04:59:13;;;;;;;0.50;0.30;;;9.30;1.00;;;;;;5096445;28;20425;-57
2023/12/26 05:01:43;;;;;;;0.50;0.20;;;9.40;1.00;;;;;;5110008;28;20963;-57
2023/12/26 05:04:11;;;;;;;1.17;0.20;;;9.40;1.00;;;;;;5115445;28;20843;-57
2023/12/26 05:06:38;;;;;;;1.20;0.30;;;9.40;1.00;;;;;;5111666;28;20443;-57
2023/12/26 05:09:05;;;;;;;0.57;0.30;;;9.40;1.00;;;;;;5112281;28;20430;-55
2023/12/26 05:11:33;;;;;;;0.93;0.30;;;9.50;1.00;;;;;;5117948;28;20727;-57
2023/12/26 05:14:00;;;;;;;0.50;0.25;;;9.50;1.00;;;;;;5112145;28;20424;-57
2023/12/26 05:16:30;;;;;;;0.95;0.30;;;9.40;1.00;;;;;;5097358;28;20454;-58
2023/12/26 05:18:57;;;;;;;0.90;0.30;;;9.40;1.00;;;;;;5113555;28;20772;-58
2023/12/26 05:21:25;;;;;;;0.50;0.30;;;9.40;1.00;;;;;;5115929;28;21095;-57
2023/12/26 05:23:52;;;;;;;0.88;0.30;;;9.60;1.00;;;;;;5108305;28;20444;-58
2023/12/26 05:26:19;;;;;;;0.70;0.20;;;9.60;1.00;;;;;;5116993;28;20439;-58
2023/12/26 05:28:46;;;;;;;1.40;0.30;;;9.60;1.00;;;;;;5116615;28;20497;-58
2023/12/26 05:31:13;;;;;;;0.80;0.20;;;9.50;99.90;;;;;;5117257;28;20412;-57
2023/12/26 05:33:42;;;;;;;0.80;0.30;;;9.50;1.00;;;;;;5116605;28;20424;-57
2023/12/26 05:36:09;;;;;;;0.60;0.30;;;9.40;1.00;;;;;;5115770;28;20439;-55
2023/12/26 05:38:37;;;;;;;0.50;0.30;;;9.40;1.00;;;;;;5116900;28;20472;-57
2023/12/26 05:41:05;;;;;;;0.90;0.30;;;9.50;1.00;;;;;;5117179;28;20497;-57
2023/12/26 05:43:32;;;;;;;0.50;0.30;;;9.50;1.00;;;;;;5115211;28;20420;-58
2023/12/26 05:46:02;;;;;;;0.95;0.30;;;9.60;1.00;;;;;;5113030;28;20732;-58
2023/12/26 05:48:29;;;;;;;1.00;0.30;;;9.60;99.90;;;;;;5114144;28;20439;-58
2023/12/26 05:50:58;;;;;;;0.60;0.30;;;9.60;99.90;;;;;;5113457;28;20427;-57
2023/12/26 05:53:29;;;;;;;1.20;0.30;;;9.60;1.00;;;;;;5115663;28;20721;-58
2023/12/26 05:55:56;;;;;;;1.80;0.30;;;9.60;1.00;;;;;;5116018;28;20840;-57
2023/12/26 05:58:23;;;;;;;0.50;0.20;;;9.50;1.00;;;;;;5114282;28;20431;-58
2023/12/26 06:00:51;;;;;;;1.67;0.40;;;9.50;1.00;;;;;;5115258;28;20456;-55
2023/12/26 06:03:18;;;;;;;2.20;0.30;;;9.50;1.00;;;;;;5115165;27;20419;-56
2023/12/26 06:05:47;;;;;;;1.67;0.40;;;9.50;1.00;;;;;;5115719;28;20519;-54
2023/12/26 06:08:17;;;;;;;2.58;0.30;;;9.50;99.90;;;;;;5114696;28;20420;-57
2023/12/26 06:10:44;;;;;;;1.20;0.30;;;9.50;1.00;;;;;;5114652;28;20432;-55
2023/12/26 06:13:11;;;;;;;2.03;0.40;;;9.50;99.90;;;;;;5116518;28;20424;-57
2023/12/26 06:15:38;;;;;;;0.50;0.30;;;9.60;1.00;;;;;;5115778;28;20858;-57
2023/12/26 06:18:06;;;;;;;1.10;0.30;;;9.60;99.90;;;;;;5114807;28;20435;-55
2023/12/26 06:20:33;;;;;;;1.40;0.30;;;9.60;99.90;;;;;;5115388;28;20426;-57
2023/12/26 06:23:00;;;;;;;0.43;0.25;;;9.60;99.90;;;;;;5114526;28;20797;-57
2023/12/26 06:25:29;;;;;;;0.45;0.20;;;9.70;1.00;;;;;;5114675;28;20534;-59
2023/12/26 06:27:59;;;;;;;0.50;0.30;;;9.70;99.90;;;;;;5115200;28;20880;-56
2023/12/26 06:30:26;;;;;;;0.40;0.20;;;9.60;99.90;;;;;;5115938;28;20425;-57
2023/12/26 06:32:54;;;;;;;0.50;0.22;;;9.50;99.90;;;;;;5115310;28;20739;-59
2023/12/26 06:35:22;;;;;;;0.60;0.20;;;9.50;99.90;;;;;;5125825;27;20418;-58
2023/12/26 06:37:49;;;;;;;1.20;0.30;;;9.60;99.90;;;;;;5135769;27;20450;-62
2023/12/26 06:40:16;;;;;;;0.90;0.30;;;9.70;99.90;;;;;;5122240;27;20446;-58
2023/12/26 06:42:45;;;;;;;0.50;0.30;;;9.60;99.90;;;;;;5115487;27;20811;-59
2023/12/26 06:45:12;;;;;;;0.85;0.35;;;9.60;99.90;;;;;;5115689;28;20464;-56
2023/12/26 06:47:40;;;;;;;0.70;0.30;;;9.50;99.90;;;;;;5115757;28;20418;-57
2023/12/26 06:50:08;;;;;;;0.77;0.20;;;9.50;99.90;;;;;;5116271;28;20881;-58
2023/12/26 06:52:36;;;;;;;1.30;0.30;;;9.50;99.90;;;;;;5116558;27;20780;-57
2023/12/26 06:55:03;;;;;;;1.10;0.40;;;9.50;99.90;;;;;;5095935;28;20436;-58
2023/12/26 06:57:30;;;;;;;0.55;0.30;;;9.50;99.90;;;;;;5115603;27;20416;-58
2023/12/26 06:59:59;;;;;;;1.25;0.30;;;9.50;1.00;;;;;;5128995;27;20463;-58
2023/12/26 07:02:26;;;;;;;0.70;0.30;;;9.60;99.90;;;;;;5132742;27;20433;-58
2023/12/26 07:04:53;;;;;;;1.83;0.30;;;9.50;99.90;;;;;;5132819;27;20430;-59
2023/12/26 07:07:20;;;;;;;1.30;0.30;;;9.50;99.90;;;;;;5136653;27;20410;-59
2023/12/26 07:09:47;;;;;;;1.60;0.50;;;9.40;99.90;;;;;;5136713;27;20423;-56
2023/12/26 07:12:14;;;;;;;1.10;0.30;;;9.40;1.00;;;;;;5136924;27;20454;-59
2023/12/26 07:14:42;;;;;;;0.77;0.30;;;9.40;1.00;;;;;;5135860;27;21044;-58
2023/12/26 07:17:10;;;;;;;1.80;0.30;;;9.50;1.00;;;;;;5136066;27;20509;-58
2023/12/26 07:19:37;;;;;;;0.50;0.20;;;9.60;1.00;;;;;;5135209;27;20416;-58
2023/12/26 07:22:05;;;;;;;1.00;0.30;;;9.50;1.00;;;;;;5136180;27;20417;-57
2023/12/26 07:24:32;;;;;;;0.60;0.30;;;9.50;99.90;;;;;;5135061;27;20419;-58
2023/12/26 07:27:01;;;;;;;0.50;0.30;;;9.40;1.00;;;;;;5118531;27;20838;-59
2023/12/26 07:29:28;;;;;;;0.90;0.20;;;9.40;1.00;;;;;;5114657;28;20448;-59
2023/12/26 07:31:56;;;;;;;0.90;0.30;;;9.40;1.00;;;;;;5113734;28;20424;-59
2023/12/26 07:34:24;;;;;;;0.70;0.30;;;9.50;1.00;;;;;;5114647;28;20412;-58
2023/12/26 07:36:53;;;;;;;1.90;0.30;;;9.50;1.00;;;;;;5115525;28;20506;-57
2023/12/26 07:39:20;;;;;;;0.80;0.30;;;9.50;1.00;;;;;;5115008;28;20436;-57
2023/12/26 07:41:48;;;;;;;1.00;0.30;;;9.60;1.00;;;;;;5115007;28;20424;-55
2023/12/26 07:44:15;;;;;;;1.60;0.30;;;9.60;99.90;;;;;;5123279;27;20525;-59
2023/12/26 07:46:42;;;;;;;1.60;0.20;;;9.50;99.90;;;;;;5125838;27;20456;-55
2023/12/26 07:49:09;;;;;;;1.30;0.30;;;9.60;1.00;;;;;;5116067;27;20429;-56
2023/12/26 07:51:38;;;;;;;1.00;0.30;;;9.70;1.00;;;;;;5114560;28;20520;-57
2023/12/26 07:54:05;;;;;;;0.70;0.30;;;9.60;1.00;;;;;;5115047;28;20507;-57
2023/12/26 07:56:32;;;;;;;0.80;0.30;;;9.60;99.90;;;;;;5114200;28;20420;-56
2023/12/26 07:58:59;;;;;;;1.40;0.30;;;9.60;99.90;;;;;;5115159;28;20552;-56
2023/12/26 08:01:27;;;;;;;0.55;0.30;;;9.60;1.00;;;;;;5114396;28;20697;-57
2023/12/26 08:03:54;;;;;;;0.82;0.30;;;9.70;1.00;;;;;;5115269;28;20513;-57
2023/12/26 08:06:23;;;;;;;0.80;0.20;;;9.60;99.90;;;;;;5114562;28;20432;-57
2023/12/26 08:08:52;;;;;;;1.47;0.40;;;9.50;1.00;;;;;;5114475;28;20743;-58
2023/12/26 08:11:19;;;;;;;1.00;0.40;;;9.40;1.00;;;;;;5114161;28;20420;-58
2023/12/26 08:13:46;;;;;;;1.15;0.30;;;9.40;1.00;;;;;;5113462;28;20676;-57
2023/12/26 08:16:13;;;;;;;0.50;0.30;;;9.40;1.00;;;;;;5114839;28;20412;-57
2023/12/26 08:18:40;;;;;;;0.90;0.30;;;9.40;1.00;;;;;;5114371;28;20426;-58
2023/12/26 08:21:08;;;;;;;0.90;0.30;;;9.60;1.00;;;;;;5114306;28;20497;-56
2023/12/26 08:23:36;;;;;;;0.40;0.28;;;9.60;1.00;;;;;;5113833;28;20426;-58
2023/12/26 08:26:07;;;;;;;0.50;0.30;;;9.80;1.00;;;;;;5114094;28;20493;-58
2023/12/26 08:28:35;;;;;;;0.60;0.30;;;9.80;99.90;;;;;;5113143;28;20713;-56
2023/12/26 08:31:02;;;;;;;0.60;0.30;;;9.60;99.90;;;;;;5112507;28;20420;-59
2023/12/26 08:33:31;;;;;;;0.70;0.30;;;9.60;99.90;;;;;;5113046;28;20424;-56
2023/12/26 08:35:58;;;;;;;0.88;0.30;;;9.60;99.90;;;;;;5114248;28;20516;-58
2023/12/26 08:38:25;;;;;;;1.80;0.30;;;9.60;1.00;;;;;;5113348;28;20477;-56
2023/12/26 08:40:52;;;;;;;1.30;0.30;;;9.60;1.00;;;;;;5115286;28;20857;-57
2023/12/26 08:43:23;;;;;;;0.73;0.30;;;9.70;99.90;;;;;;5114568;28;20446;-55
2023/12/26 08:45:50;;;;;;;0.88;0.30;;;9.70;99.90;;;;;;5116613;28;20428;-58
2023/12/26 08:48:17;;;;;;;1.40;0.30;;;9.90;99.90;;;;;;5113705;28;20455;-56
2023/12/26 08:50:45;;;;;;;1.50;0.30;;;9.90;99.90;;;;;;5111191;28;20715;-57
2023/12/26 08:53:12;;;;;;;1.23;0.30;;;9.90;99.90;;;;;;5104243;28;20430;-57
2023/12/26 08:55:39;;;;;;;1.50;0.30;;;9.90;99.90;;;;;;5114100;28;20450;-57
2023/12/26 08:58:06;;;;;;;0.60;0.30;;;9.90;99.90;;;;;;5112946;28;20744;-57
2023/12/26 09:00:35;;;;;;;0.60;0.30;;;9.90;99.90;;;;;;5114501;28;20424;-56
2023/12/26 09:03:02;;;;;;;1.20;0.30;;;9.90;99.90;;;;;;5113712;28;20906;-55
2023/12/26 09:05:29;;;;;;;1.60;0.40;;;9.90;99.90;;;;;;5112667;28;20454;-57
2023/12/26 09:07:56;;;;;;;0.50;0.30;;;9.90;99.90;;;;;;5113591;28;20428;-56
2023/12/26 09:10:23;;;;;;;1.48;0.38;;;10.00;99.90;;;;;;5113467;28;20453;-56
2023/12/26 09:12:50;;;;;;;0.90;0.30;;;9.90;99.90;;;;;;5113802;28;20567;-56
2023/12/26 09:15:17;;;;;;;0.40;0.30;;;9.90;99.90;;;;;;5112618;28;20424;-57
2023/12/26 09:17:46;;;;;;;0.80;0.30;;;10.00;99.90;;;;;;5112687;28;21084;-57
2023/12/26 09:20:13;;;;;;;0.50;0.20;;;9.90;99.90;;;;;;5095251;28;20420;-56
2023/12/26 09:22:40;;;;;;;2.00;0.40;;;9.90;99.90;;;;;;5114444;28;20414;-57
2023/12/26 09:25:08;;;;;;;0.90;0.30;;;10.00;99.90;;;;;;5104371;28;20408;-58
2023/12/26 09:27:35;;;;;;;0.60;0.30;;;10.10;99.90;;;;;;5112785;28;20432;-55
2023/12/26 09:30:02;;;;;;;1.60;0.30;;;10.30;99.90;;;;;;5113136;28;20428;-58
2023/12/26 09:32:30;;;;;;;0.80;0.30;;;10.40;99.90;;;;;;5112996;28;20426;-56
2023/12/26 09:34:58;;;;;;;1.50;0.30;;;10.30;64.50;;;;;;5111673;28;20715;-57
2023/12/26 09:37:25;;;;;;;1.35;0.30;;;10.10;99.90;;;;;;5108920;28;20996;-58
2023/12/26 09:39:53;;;;;;;1.17;0.20;;;10.10;99.90;;;;;;5110487;28;20420;-57
2023/12/26 09:42:22;;;;;;;0.80;0.30;;;10.10;99.90;;;;;;5113516;28;20518;-58
2023/12/26 09:44:51;;;;;;;0.95;0.30;;;10.20;99.90;;;;;;5115055;28;20420;-58
2023/12/26 09:47:20;;;;;;;0.47;0.20;;;10.30;99.90;;;;;;5113277;28;20447;-57
2023/12/26 09:49:47;;;;;;;1.17;0.30;;;10.40;99.90;;;;;;5107279;28;20485;-56
2023/12/26 09:52:16;;;;;;;0.60;0.22;;;10.30;99.90;;;;;;5115872;28;20843;-57
2023/12/26 09:54:45;;;;;;;3.27;0.30;;;10.20;99.90;;;;;;5108923;28;20420;-57
2023/12/26 09:57:13;;;;;;;0.80;0.30;;;10.20;99.90;;;;;;5116510;28;20420;-58
2023/12/26 09:59:43;;;;;;;0.52;0.25;;;10.10;99.90;;;;;;5117026;27;20428;-57
2023/12/26 10:02:15;;;;;;;1.00;0.30;;;10.10;99.90;;;;;;5116255;28;20416;-57
2023/12/26 10:04:43;;;;;;;2.10;0.20;;;10.10;99.90;;;;;;5115868;28;20410;-57
2023/12/26 10:07:10;;;;;;;0.82;0.20;;;10.10;99.90;;;;;;5115390;28;20883;-58
2023/12/26 10:09:39;;;;;;;0.60;0.20;;;10.10;99.90;;;;;;5114660;28;20426;-57
2023/12/26 10:12:06;;;;;;;0.90;0.30;;;10.30;99.90;;;;;;5115235;28;20844;-56
2023/12/26 10:14:33;;;;;;;0.80;0.30;;;10.40;99.90;;;;;;5116289;27;20423;-57
2023/12/26 10:17:01;;;;;;;0.50;0.20;;;10.30;99.90;;;;;;5137251;27;20461;-58
2023/12/26 10:19:28;;;;;;;0.40;0.20;;;10.30;99.90;;;;;;5137087;27;20494;-58
2023/12/26 10:21:55;;;;;;;0.40;0.20;;;10.30;99.90;;;;;;5137063;27;20433;-57
2023/12/26 10:24:22;;;;;;;1.55;0.20;;;10.30;99.90;;;;;;5124671;27;20416;-58
2023/12/26 10:26:51;;;;;;;0.40;0.20;;;10.50;99.90;;;;;;5116073;28;20467;-57
2023/12/26 10:29:18;;;;;;;0.57;0.20;;;10.60;95.10;;;;;;5115464;28;20420;-57
2023/12/26 10:31:45;;;;;;;1.00;0.20;;;10.60;99.90;;;;;;5115727;28;20409;-57
2023/12/26 10:34:17;;;;;;;0.90;0.20;;;10.60;99.90;;;;;;5115399;28;20412;-57
2023/12/26 10:36:45;;;;;;;0.80;0.20;;;10.60;99.90;;;;;;5111046;28;20518;-57
2023/12/26 10:39:12;;;;;;;0.88;0.30;;;10.60;99.90;;;;;;5103697;28;20835;-58
2023/12/26 10:41:44;;;;;;;1.20;0.20;;;10.70;99.90;;;;;;5115844;28;20843;-59
2023/12/26 10:44:14;;;;;;;0.60;0.30;;;10.70;99.90;;;;;;5098753;28;20733;-57
2023/12/26 10:46:45;;;;;;;1.08;0.30;;;10.70;79.10;;;;;;5093905;28;20465;-58
2023/12/26 10:49:18;;;;;;;0.43;0.25;;;10.60;99.80;;;;;;5093839;28;20414;-58
2023/12/26 10:51:45;;;;;;;0.70;0.20;;;10.50;99.90;;;;;;5103454;28;20507;-58
2023/12/26 10:54:19;;;;;;;1.90;0.20;;;10.60;99.90;;;;;;5099014;28;20422;-58
2023/12/26 10:56:49;;;;;;;0.50;0.20;;;10.50;99.90;;;;;;5105992;28;20425;-57
2023/12/26 13:51:37;;;;;;;0.60;0.20;;;10.90;1.00;;;;;;5095652;28;20373;-57
2023/12/26 13:54:41;;;;;;;0.40;0.20;;;11.20;99.90;;;;;;5095600;28;20428;-58
2023/12/26 13:57:46;;;;;;;0.50;0.20;;;11.10;1.00;;;;;;5113079;28;20794;-57
2023/12/26 14:00:50;;;;;;;0.40;0.20;;;11.10;29.10;;;;;;5117152;28;20522;-58
2023/12/26 14:03:56;;;;;;;0.37;0.10;;;11.00;99.90;;;;;;5115459;28;20523;-58
2023/12/26 14:07:00;;;;;;;0.40;0.20;;;11.00;99.90;;;;;;5114479;28;20432;-57
2023/12/26 14:10:04;;;;;;;0.30;0.10;;;10.90;99.90;;;;;;5114633;28;20453;-57
2023/12/26 14:13:09;;;;;;;0.40;0.10;;;11.00;1.00;;;;;;5116054;28;20420;-57
2023/12/26 14:16:13;;;;;;;0.50;0.20;;;11.10;1.00;;;;;;5105550;28;20516;-58
2023/12/26 14:19:18;;;;;;;0.60;0.20;;;11.00;99.90;;;;;;5095228;28;20512;-58
2023/12/26 14:22:23;;;;;;;0.38;0.20;;;11.00;99.90;;;;;;5094590;28;20579;-59
2023/12/26 14:25:28;;;;;;;0.80;0.20;;;10.90;1.00;;;;;;5096080;28;20426;-58
2023/12/26 14:28:33;;;;;;;0.40;0.20;;;10.90;1.00;;;;;;5095390;28;20434;-58
2023/12/26 14:31:37;;;;;;;0.40;0.20;;;10.80;1.00;;;;;;5084194;28;20427;-58
2023/12/26 14:34:41;;;;;;;0.60;0.20;;;10.70;99.90;;;;;;5073892;28;20431;-58
2023/12/26 14:37:46;;;;;;;0.40;0.20;;;10.50;1.00;;;;;;5074855;28;20426;-58
2023/12/26 14:40:50;;;;;;;0.40;0.13;;;10.50;1.00;;;;;;5094461;28;20769;-57
2023/12/26 14:43:55;;;;;;;0.50;0.20;;;10.50;58.70;;;;;;5094705;28;20520;-58
2023/12/26 14:46:59;;;;;;;0.40;0.20;;;10.40;99.90;;;;;;5095537;28;20426;-58
2023/12/26 14:50:04;;;;;;;0.50;0.20;;;10.30;1.00;;;;;;5094068;28;20512;-58
2023/12/26 14:53:08;;;;;;;0.45;0.20;;;10.30;1.00;;;;;;5093965;28;20429;-58
2023/12/26 14:56:12;;;;;;;0.30;0.10;;;10.30;1.00;;;;;;5093834;28;20440;-56
2023/12/26 14:59:17;;;;;;;0.40;0.20;;;10.30;67.10;;;;;;5092303;28;20480;-56
2023/12/26 15:02:01;;;;;;;0.43;0.20;;;10.40;1.00;;;;;;5094674;28;20422;-58
2023/12/26 15:04:29;;;;;;;1.10;0.20;;;10.50;16.20;;;;;;5093121;28;20616;-58
2023/12/26 15:06:58;;;;;;;0.80;0.20;;;10.50;99.90;;;;;;5094661;28;20957;-57
2023/12/26 15:09:27;;;;;;;0.50;0.20;;;10.50;1.00;;;;;;5094556;28;20508;-58
2023/12/26 15:11:55;;;;;;;0.50;0.27;;;10.50;1.00;;;;;;5094690;28;20421;-58
2023/12/26 15:14:22;;;;;;;0.40;0.22;;;10.50;1.00;;;;;;5093271;28;20414;-57
2023/12/26 15:16:49;;;;;;;0.30;0.20;;;10.30;99.90;;;;;;5095361;28;20428;-58
2023/12/26 15:19:18;;;;;;;0.50;0.20;;;10.20;99.90;;;;;;5095085;28;20461;-58
2023/12/26 15:21:45;;;;;;;0.60;0.20;;;10.30;1.00;;;;;;5094904;28;20802;-58
2023/12/26 15:24:14;;;;;;;0.70;0.20;;;10.30;1.00;;;;;;5094973;28;20422;-54
2023/12/26 15:26:42;;;;;;;0.80;0.20;;;10.40;99.90;;;;;;5094724;28;20516;-58
2023/12/26 15:29:09;;;;;;;0.40;0.20;;;10.40;99.90;;;;;;5093914;28;20418;-60
2023/12/26 15:31:36;;;;;;;0.50;0.20;;;10.30;99.90;;;;;;5094643;28;20425;-58
2023/12/26 15:34:04;;;;;;;0.70;0.30;;;10.30;99.90;;;;;;5093543;28;20501;-58
2023/12/26 15:36:32;;;;;;;0.90;0.30;;;10.30;1.00;;;;;;5094327;28;20443;-59
2023/12/26 15:38:59;;;;;;;0.50;0.30;;;10.30;1.00;;;;;;5078607;28;20514;-57
2023/12/26 15:41:27;;;;;;;1.10;0.40;;;10.20;1.00;;;;;;5073895;28;20519;-58
2023/12/26 15:43:55;;;;;;;0.60;0.30;;;10.20;1.00;;;;;;5072921;28;20471;-58
2023/12/26 15:46:23;;;;;;;0.43;0.20;;;10.20;1.00;;;;;;5074109;28;20430;-58
2023/12/26 15:48:51;;;;;;;0.50;0.20;;;10.30;1.00;;;;;;5073191;28;20517;-58
2023/12/26 15:51:20;;;;;;;0.93;0.20;;;10.30;1.00;;;;;;5073715;28;20719;-58
2023/12/26 15:53:50;;;;;;;1.50;0.20;;;10.20;1.00;;;;;;5077995;28;20718;-58
2023/12/26 15:56:20;;;;;;;0.50;0.30;;;10.20;1.00;;;;;;5093163;28;20410;-56
2023/12/26 15:58:47;;;;;;;0.98;0.30;;;10.30;1.00;;;;;;5094164;28;20544;-57
2023/12/26 16:01:16;;;;;;;0.40;0.20;;;10.30;1.00;;;;;;5094136;28;20490;-58
2023/12/26 16:03:44;;;;;;;0.50;0.20;;;10.40;1.00;;;;;;5093555;28;20487;-59
2023/12/26 16:06:18;;;;;;;0.50;0.20;;;10.50;99.90;;;;;;5092651;28;20779;-59
2023/12/26 16:08:45;;;;;;;0.40;0.20;;;10.50;1.00;;;;;;5093407;28;20426;-58